Tuskahoma, OK (74574)

2:28 PM CDT on July 25, 2014 (GMT -0500)
McAlester Regional (KMLC) Elev 768 ft | 34.88 °N, 95.78 °W | Change Station

Current weather conditions updated 35 minutes ago

Clear
Clear
89 °F
Feels Like 96 °F
N
12
Wind Variable Wind from SSW

Today is forecast to be nearly the same temperature as yesterday.

Today
High -- | Low -- °F
--% Chance of Precip.
Yesterday
High -- | Low -- °F
Precip. -- in
6:25 AM 8:28 PM
Waning Crescent, 1% visible
Pressure 29.95 in
Visibility 10.0 miles
Clouds Clear
Heat Index 96 °F
Dew Point 72 °F
Humidity 57%
Rainfall 0.00 in
Snow Depth Not available.
UV 12 out of 12
Pollen 4.70 out of 12
Air Quality Not available.
Flu Activity Not available.
METAR KMLC 251853Z AUTO 20010KT 10SM CLR 32/22 A2998 RMK AO2 SLP140 T03170222

More Conditions Fewer Conditions

Pressure 29.95 in
Visibility 10.0 miles
Clouds Clear
Heat Index 96 °F
Dew Point 72 °F
Humidity 57%
Rainfall 0.00 in
Snow Depth Not available.
UV 12 out of 12
Pollen 4.70 out of 12
Air Quality Not available.
Flu Activity Not available.
METAR KMLC 251853Z AUTO 20010KT 10SM CLR 32/22 A2998 RMK AO2 SLP140 T03170222

More Conditions Fewer Conditions

10-Day Weather Forecast

Almanac

Astronomy

Jul. 25, 2014 Rise Set
Actual Time 6:25 AM CDT 8:28 PM CDT
Civil Twilight 5:57 AM CDT 8:56 PM CDT
Nautical Twilight 5:23 AM CDT 9:31 PM CDT
Astronomical Twilight 4:46 AM CDT 10:07 PM CDT
Moon 5:24 AM CDT 7:28 PM CDT
Length of Visible Light 14h 59m
Length of Day
14h 02m
Tomorrow will be 1m 27s shorter.
Waning Crescent, 1% of the Moon is Illuminated
Today
Waning Crescent
Jul 26
New
Aug 3
First Quarter
Aug 10
Full
Aug 17
Last Quarter

Today's Extremes

State Highs State Lows

Community

WunderPhotos

Upload Photos

1,737,384 photos uploaded!

Nearby

Snow Depth

Station Depth Elevation
No new snow has been reported.

Earthquake Activity

City Distance Mag. Time & Date
No recent earthquake activity has been reported nearby.
Minimum magnitude displayed is 2.5.

Coastal Water Temperatures

Place Temperature
No Stations Reporting

Nearby Weather Stations

Station Location Temp. Heat Index Dew Point Humidity Wind Precip. Elev Updated Type
RAWS KIAMICHI OK, Talihina, OK 88 °F 97 °F 74 °F 63% North  at  0 mph 0.00 in / hr 680 ft 12:59 PM CDT MADIS

Show More Stations Show Fewer Stations